Time;durP1;ratioP1;P1;durP2;ratioP2;P2;SDS_P1;SDS_P2;PMS_P1;PMS_P2;Temp;Humidity;BMP_temperature;BMP_pressure;BME280_temperature;BME280_humidity;BME280_pressure;Samples;Min_cycle;Max_cycle;Signal;HPM_P1;HPM_P2
2022/04/19 00:00:25;;;;;;;13.40;6.40;;;;;;;2.67;75.05;99014.59;1725856;81;21062;-74
2022/04/19 00:02:52;;;;;;;12.43;7.50;;;;;;;2.66;75.33;99016.80;1725488;81;20982;-73
2022/04/19 00:05:19;;;;;;;10.28;7.22;;;;;;;2.64;75.60;99015.92;1722224;82;21077;-74
2022/04/19 00:07:47;;;;;;;14.30;6.92;;;;;;;2.62;75.69;99017.69;1719548;81;21078;-74
2022/04/19 00:10:14;;;;;;;9.65;6.10;;;;;;;2.60;75.90;99014.66;1724429;81;21103;-74
2022/04/19 00:12:43;;;;;;;12.65;6.50;;;;;;;2.60;76.16;99010.75;1720986;82;21123;-74
2022/04/19 00:15:10;;;;;;;10.32;6.08;;;;;;;2.59;76.24;99012.95;1712117;81;21058;-74
2022/04/19 00:17:38;;;;;;;6.60;5.42;;;;;;;2.58;76.54;99011.66;1733259;81;21270;-74
2022/04/19 00:20:06;;;;;;;6.03;5.15;;;;;;;2.57;76.70;99007.34;1725251;81;21185;-74
2022/04/19 00:22:32;;;;;;;7.75;4.70;;;;;;;2.55;76.88;99011.24;1735762;81;21110;-74
2022/04/19 00:24:59;;;;;;;6.87;4.92;;;;;;;2.55;77.16;99002.16;1704569;81;21055;-73
2022/04/19 00:27:28;;;;;;;7.17;4.65;;;;;;;2.57;77.32;99006.92;1709179;83;21074;-74
2022/04/19 00:29:54;;;;;;;8.48;5.45;;;;;;;2.57;77.45;99013.41;1712647;82;21174;-74
2022/04/19 00:32:20;;;;;;;6.55;4.40;;;;;;;2.58;77.70;99009.06;1702112;82;21517;-74
2022/04/19 00:34:48;;;;;;;6.97;4.30;;;;;;;2.57;77.90;99004.73;1701586;82;21681;-73
2022/04/19 00:37:15;;;;;;;4.35;3.70;;;;;;;2.55;78.11;99003.90;1707040;83;21020;-74
2022/04/19 00:39:42;;;;;;;4.70;4.05;;;;;;;2.52;78.17;98999.61;1711204;83;21132;-74
2022/04/19 00:42:10;;;;;;;5.35;3.55;;;;;;;2.52;78.34;99000.91;1692620;83;21202;-73
2022/04/19 00:44:39;;;;;;;4.78;4.08;;;;;;;2.50;78.61;99001.34;1710522;83;21703;-74
2022/04/19 00:47:07;;;;;;;8.18;4.72;;;;;;;2.46;78.73;98994.47;1712916;83;22257;-74
2022/04/19 00:49:37;;;;;;;5.70;4.42;;;;;;;2.44;78.89;98996.64;1706481;83;21290;-74
2022/04/19 00:52:06;;;;;;;5.17;4.37;;;;;;;2.38;79.27;99003.63;1704783;82;21585;-74
2022/04/19 00:54:34;;;;;;;4.90;4.42;;;;;;;2.36;79.43;99000.64;1705139;83;21146;-74
2022/04/19 00:57:03;;;;;;;4.55;4.15;;;;;;;2.34;79.82;99001.09;1690885;83;21738;-74
2022/04/19 00:59:32;;;;;;;4.90;4.50;;;;;;;2.31;80.03;99006.31;1698416;82;21841;-74
2022/04/19 01:02:04;;;;;;;4.62;4.28;;;;;;;2.26;80.31;99013.28;1692876;83;22207;-74
2022/04/19 01:04:32;;;;;;;5.53;5.03;;;;;;;2.24;80.54;99010.70;1698055;83;21051;-74
2022/04/19 01:07:00;;;;;;;5.00;4.50;;;;;;;2.21;80.85;99010.27;1674337;83;21126;-74
2022/04/19 01:09:27;;;;;;;5.90;5.37;;;;;;;2.18;81.02;99008.15;1713729;82;21066;-74
2022/04/19 01:14:39;;;;;;;5.75;5.22;;;;;;;2.12;81.66;99012.97;1677304;83;21023;-74
2022/04/19 01:17:08;;;;;;;5.17;4.78;;;;;;;2.09;81.70;99015.58;1701222;82;21115;-74
2022/04/19 01:19:38;;;;;;;5.87;5.37;;;;;;;2.08;81.77;99004.77;1657498;83;21660;-74
2022/04/19 01:22:06;;;;;;;5.00;4.58;;;;;;;2.06;81.85;99003.92;1715223;83;21229;-74
2022/04/19 01:24:36;;;;;;;4.97;4.58;;;;;;;2.05;81.66;98999.59;1684745;84;21100;-74
2022/04/19 01:27:05;;;;;;;4.60;4.30;;;;;;;1.98;81.53;99007.02;1677783;83;21570;-74
2022/04/19 01:29:33;;;;;;;4.37;4.00;;;;;;;1.96;81.66;99006.17;1689761;82;21080;-74
2022/04/19 01:32:02;;;;;;;4.03;3.70;;;;;;;1.96;81.60;99010.06;1723175;82;21078;-75
2022/04/19 01:34:31;;;;;;;5.65;4.58;;;;;;;1.91;81.64;99000.16;1700676;82;21090;-73
2022/04/19 01:37:00;;;;;;;4.70;4.30;;;;;;;1.89;81.87;98998.88;1718829;81;21218;-74
2022/04/19 01:42:14;;;;;;;4.55;3.70;;;;;;;1.88;81.90;99000.19;1729589;81;21074;-74
2022/04/19 01:44:43;;;;;;;4.92;3.55;;;;;;;1.86;81.91;99001.04;1726833;81;21049;-74
2022/04/19 01:47:10;;;;;;;4.83;3.90;;;;;;;1.84;81.87;99000.20;1724020;81;21497;-73
2022/04/19 01:49:38;;;;;;;3.72;3.50;;;;;;;1.82;81.92;98998.06;1721952;81;21142;-74
2022/04/19 01:52:08;;;;;;;4.40;3.65;;;;;;;1.79;82.04;98996.78;1721475;81;21083;-74
2022/04/19 01:54:38;;;;;;;4.08;3.77;;;;;;;1.78;82.12;98996.38;1724482;81;21062;-74
2022/04/19 01:57:05;;;;;;;3.50;3.20;;;;;;;1.76;82.15;98989.02;1722327;81;21185;-74
2022/04/19 01:59:38;;;;;;;3.95;3.58;;;;;;;1.75;82.27;98991.62;1721394;81;21598;-74
2022/04/19 02:02:12;;;;;;;4.17;3.27;;;;;;;1.70;82.42;98987.79;1718906;82;21136;-74
2022/04/19 02:04:38;;;;;;;3.62;3.42;;;;;;;1.67;82.52;98986.51;1715370;81;21070;-74
2022/04/19 02:07:07;;;;;;;3.95;3.60;;;;;;;1.66;82.73;98978.29;1715217;82;21236;-74
2022/04/19 02:09:34;;;;;;;3.55;3.20;;;;;;;1.65;82.76;98980.03;1699560;83;21204;-73
2022/04/19 02:12:05;;;;;;;4.05;3.62;;;;;;;1.61;82.79;98976.17;1730956;81;21079;-74
2022/04/19 02:14:50;;;;;;;4.53;3.30;;;;;;;1.57;82.91;98977.92;1717495;82;21078;-73
2022/04/19 02:17:20;;;;;;;4.83;3.77;;;;;;;1.57;82.96;98969.30;1720623;81;21546;-73
2022/04/19 02:19:49;;;;;;;3.75;3.42;;;;;;;1.56;83.06;98977.94;1727625;81;21043;-74
2022/04/19 02:22:17;;;;;;;3.62;3.40;;;;;;;1.55;83.16;98977.09;1723152;81;21069;-73
2022/04/19 02:24:43;;;;;;;4.55;3.50;;;;;;;1.56;83.25;98977.94;1713292;81;21094;-73
2022/04/19 02:27:11;;;;;;;4.42;3.98;;;;;;;1.54;83.27;98977.09;1724214;81;21133;-74
2022/04/19 02:29:40;;;;;;;4.08;3.60;;;;;;;1.53;83.42;98975.36;1721664;82;21047;-73
2022/04/19 02:32:08;;;;;;;4.15;3.40;;;;;;;1.53;83.47;98973.64;1696489;83;21117;-73
2022/04/19 02:34:37;;;;;;;4.12;3.50;;;;;;;1.54;83.38;98969.31;1712043;83;21120;-73
2022/04/19 02:37:06;;;;;;;3.72;3.47;;;;;;;1.53;83.48;98969.76;1709917;83;21541;-74
2022/04/19 02:39:33;;;;;;;4.50;3.92;;;;;;;1.54;83.43;98966.72;1707073;83;21200;-73
2022/04/19 02:42:00;;;;;;;4.10;3.70;;;;;;;1.53;83.53;98964.98;1705929;83;21083;-73
2022/04/19 02:44:27;;;;;;;4.25;3.50;;;;;;;1.53;83.54;98967.58;1708396;83;21007;-73
2022/04/19 02:47:08;;;;;;;4.00;3.50;;;;;;;1.53;83.66;98962.39;1695880;83;21086;-74
2022/04/19 02:49:37;;;;;;;5.08;4.17;;;;;;;1.50;83.74;98960.70;1697643;83;21569;-73
2022/04/19 02:52:06;;;;;;;8.28;4.45;;;;;;;1.49;83.75;98963.70;1703105;83;21047;-73
2022/04/19 02:54:34;;;;;;;8.60;4.33;;;;;;;1.48;83.85;98952.08;1700981;83;21056;-73
2022/04/19 02:57:04;;;;;;;8.35;4.75;;;;;;;1.50;83.87;98956.81;1700164;83;21116;-73
2022/04/19 02:59:31;;;;;;;7.87;4.42;;;;;;;1.49;83.91;98955.92;1698453;82;21249;-74
2022/04/19 03:02:01;;;;;;;8.08;4.78;;;;;;;1.48;84.04;98958.12;1704850;83;36749;-71
2022/04/19 03:04:29;;;;;;;9.35;4.42;;;;;;;1.45;84.16;98955.54;1698578;83;21214;-73
2022/04/19 03:06:57;;;;;;;6.40;4.42;;;;;;;1.44;84.15;98949.92;1714067;83;21138;-73
2022/04/19 03:09:25;;;;;;;7.33;3.90;;;;;;;1.45;84.27;98955.98;1709228;83;21561;-73
2022/04/19 03:11:51;;;;;;;5.08;3.75;;;;;;;1.44;84.28;98952.51;1705994;83;21565;-74
2022/04/19 03:14:19;;;;;;;6.30;4.05;;;;;;;1.44;84.26;98953.80;1693554;83;21000;-73
2022/04/19 03:16:46;;;;;;;7.12;3.87;;;;;;;1.42;84.40;98952.11;1710070;83;21207;-74
2022/04/19 03:19:13;;;;;;;6.08;3.70;;;;;;;1.39;84.51;98952.98;1699880;83;21070;-73
2022/04/19 03:21:42;;;;;;;3.65;3.35;;;;;;;1.39;84.58;98952.98;1695263;83;21672;-73
2022/04/19 03:29:40;;;;;;;3.75;3.30;;;;;;;1.40;84.82;98957.30;1712381;83;21144;-74
2022/04/19 03:32:09;;;;;;;3.33;3.02;;;;;;;1.39;84.92;98962.05;1717138;81;21703;-73
2022/04/19 03:34:39;;;;;;;2.83;2.62;;;;;;;1.42;84.82;98964.63;1703329;82;21185;-72
2022/04/19 03:37:09;;;;;;;3.15;2.90;;;;;;;1.45;84.81;98962.02;1715640;83;21042;-73
2022/04/19 03:39:37;;;;;;;3.40;3.10;;;;;;;1.47;84.88;98959.42;1703341;82;21636;-74
2022/04/19 03:42:08;;;;;;;2.90;2.70;;;;;;;1.46;84.77;98959.87;1684266;83;21142;-73
2022/04/19 03:44:33;;;;;;;3.02;2.83;;;;;;;1.47;84.84;98958.98;1684903;83;21081;-74
2022/04/19 03:47:09;;;;;;;3.08;2.77;;;;;;;1.48;84.96;98959.41;1664224;84;21119;-74
2022/04/19 03:49:41;;;;;;;2.85;2.65;;;;;;;1.50;84.91;98958.11;1707697;83;21414;-73
2022/04/19 03:52:08;;;;;;;2.83;2.62;;;;;;;1.49;85.00;98966.30;1713779;83;21083;-73
2022/04/19 03:54:36;;;;;;;2.95;2.70;;;;;;;1.52;85.06;98969.77;1710310;83;21546;-73
2022/04/19 03:57:07;;;;;;;3.60;2.92;;;;;;;1.54;85.08;98969.31;1702328;83;21122;-73
2022/04/19 03:59:42;;;;;;;2.92;2.83;;;;;;;1.57;84.96;98970.59;1688207;83;21095;-72
2022/04/19 04:02:06;;;;;;;2.80;2.60;;;;;;;1.59;84.99;98964.95;1708713;83;20991;-73
2022/04/19 04:04:35;;;;;;;3.12;2.85;;;;;;;1.59;85.04;98955.88;1687357;83;21950;-73
2022/04/19 04:07:04;;;;;;;3.33;2.90;;;;;;;1.63;84.95;98951.08;1694198;83;21109;-73
2022/04/19 04:09:33;;;;;;;3.20;3.00;;;;;;;1.65;85.00;98950.21;1702767;83;21125;-73
2022/04/19 04:12:11;;;;;;;3.08;2.87;;;;;;;1.68;85.02;98951.91;1691898;83;21727;-73
2022/04/19 04:14:43;;;;;;;3.15;2.80;;;;;;;1.72;85.06;98953.62;1712615;83;21085;-73
2022/04/19 04:17:12;;;;;;;3.10;2.90;;;;;;;1.74;85.03;98943.23;1693502;83;21173;-75
2022/04/19 04:19:43;;;;;;;4.30;3.12;;;;;;;1.75;85.10;98933.27;1708465;82;21682;-73
2022/04/19 04:22:12;;;;;;;3.00;2.70;;;;;;;1.79;85.16;98922.01;1683412;84;21557;-74
2022/04/19 04:24:40;;;;;;;4.03;3.60;;;;;;;1.83;85.22;98925.87;1683110;83;21106;-73
2022/04/19 04:27:07;;;;;;;4.30;3.90;;;;;;;1.87;85.13;98918.91;1690721;83;21057;-73
2022/04/19 04:29:36;;;;;;;4.65;4.00;;;;;;;1.89;85.16;98917.16;1701862;83;21048;-72
2022/04/19 04:32:06;;;;;;;3.58;3.27;;;;;;;1.92;85.20;98913.25;1668964;83;21703;-73
2022/04/19 04:34:34;;;;;;;3.77;3.58;;;;;;;1.99;85.31;98920.53;1706973;82;21021;-72
2022/04/19 04:37:03;;;;;;;3.60;3.27;;;;;;;2.04;85.24;98923.94;1713577;83;21047;-73
2022/04/19 04:39:30;;;;;;;3.90;3.60;;;;;;;2.08;85.16;98932.55;1682363;83;21074;-73
2022/04/19 04:42:15;;;;;;;3.52;3.33;;;;;;;2.10;85.03;98931.67;1675107;83;21063;-73
2022/04/19 04:44:43;;;;;;;3.87;3.58;;;;;;;2.12;85.00;98926.03;1669952;84;21077;-72
2022/04/19 04:50:01;;;;;;;4.03;3.20;;;;;;;2.16;84.82;98917.32;1714225;83;21592;-73
2022/04/19 04:52:29;;;;;;;4.15;3.75;;;;;;;2.17;85.02;98907.38;1717807;83;21592;-73
2022/04/19 04:54:56;;;;;;;4.03;3.72;;;;;;;2.17;85.03;98911.68;1709354;83;21582;-73
2022/04/19 04:57:26;;;;;;;4.20;3.90;;;;;;;2.18;85.08;98913.41;1707495;83;21031;-74
2022/04/19 04:59:52;;;;;;;4.00;3.58;;;;;;;2.25;85.11;98910.31;1711251;83;21858;-72
2022/04/19 05:02:23;;;;;;;3.72;3.42;;;;;;;2.32;85.12;98915.86;1693548;83;21166;-73
2022/04/19 05:04:50;;;;;;;3.08;2.87;;;;;;;2.37;85.03;98904.56;1718868;83;22419;-73
2022/04/19 05:07:18;;;;;;;4.28;3.75;;;;;;;2.42;84.52;98904.48;1708717;83;21012;-73
2022/04/19 05:09:49;;;;;;;3.02;2.83;;;;;;;2.45;84.49;98911.40;1693282;83;21138;-73
2022/04/19 05:12:16;;;;;;;3.15;2.95;;;;;;;2.50;84.23;98913.05;1712085;83;21726;-74
2022/04/19 05:14:44;;;;;;;3.40;3.20;;;;;;;2.55;84.08;98917.75;1718244;83;21059;-74
2022/04/19 05:17:12;;;;;;;3.15;2.95;;;;;;;2.60;84.02;98919.85;1684788;82;21225;-74
2022/04/19 05:19:41;;;;;;;3.08;2.87;;;;;;;2.65;83.42;98922.41;1702188;83;21109;-74
2022/04/19 05:22:09;;;;;;;3.65;2.87;;;;;;;2.67;83.44;98910.70;1714602;83;21077;-73
2022/04/19 05:24:37;;;;;;;4.30;3.15;;;;;;;2.75;83.34;98914.06;1700765;83;21090;-74
2022/04/19 05:27:04;;;;;;;2.60;2.40;;;;;;;2.80;83.23;98922.66;1704623;83;21078;-75
2022/04/19 05:29:31;;;;;;;2.55;2.45;;;;;;;2.84;82.63;98923.05;1683272;82;21086;-74
2022/04/19 05:31:58;;;;;;;2.50;2.40;;;;;;;2.88;82.55;98921.27;1686424;83;21064;-73
2022/04/19 05:34:25;;;;;;;2.58;2.47;;;;;;;2.92;82.34;98913.39;1684424;84;21075;-74
2022/04/19 05:36:53;;;;;;;2.77;2.50;;;;;;;2.96;81.85;98915.09;1694740;83;21000;-74
2022/04/19 05:39:21;;;;;;;3.33;2.85;;;;;;;2.95;81.55;98922.45;1708817;82;21056;-74
2022/04/19 05:41:48;;;;;;;3.17;2.98;;;;;;;2.98;81.81;98924.16;1722473;82;21083;-74
2022/04/19 05:44:15;;;;;;;3.33;2.90;;;;;;;3.01;81.43;98933.64;1709397;83;22311;-75
2022/04/19 05:46:42;;;;;;;7.30;3.33;;;;;;;3.00;81.05;98923.70;1709885;83;21261;-73
2022/04/19 05:49:08;;;;;;;3.20;2.87;;;;;;;3.01;81.08;98927.14;1711825;82;21130;-74
2022/04/19 05:51:35;;;;;;;3.50;3.20;;;;;;;3.04;81.26;98932.30;1714733;83;21027;-73
2022/04/19 05:54:03;;;;;;;3.72;3.42;;;;;;;3.08;81.47;98929.66;1713774;82;21506;-74
2022/04/19 05:56:33;;;;;;;5.50;4.20;;;;;;;3.14;81.91;98934.78;1682646;83;21004;-73
2022/04/19 05:59:03;;;;;;;4.30;3.92;;;;;;;3.18;81.44;98938.19;1698326;83;21098;-74
2022/04/19 06:04:51;;;;;;;4.92;4.00;;;;;;;3.23;81.17;98937.69;1705319;82;21190;-74
2022/04/19 06:06:45;;;;;;;3.83;3.52;;;;;;;3.31;80.62;98950.55;1712013;83;21255;-73
2022/04/19 06:09:12;;;;;;;5.35;4.30;;;;;;;3.29;80.24;98953.17;1716378;83;22969;-74
2022/04/19 06:11:41;;;;;;;4.03;3.50;;;;;;;3.28;80.14;98950.17;1702761;83;21109;-74
2022/04/19 06:14:11;;;;;;;4.35;3.70;;;;;;;3.27;80.17;98945.84;1707088;83;21131;-73
2022/04/19 06:16:37;;;;;;;5.40;3.90;;;;;;;3.29;80.09;98943.22;1689263;83;21058;-73
2022/04/19 06:19:06;;;;;;;4.55;3.72;;;;;;;3.26;79.95;98935.05;1706044;83;21575;-75
2022/04/19 06:21:34;;;;;;;4.03;3.62;;;;;;;3.26;80.34;98935.47;1696166;83;21038;-73
2022/04/19 06:24:04;;;;;;;4.50;3.77;;;;;;;3.25;80.58;98942.41;1708222;82;22122;-74
2022/04/19 06:26:30;;;;;;;5.28;3.98;;;;;;;3.29;80.43;98949.27;1705383;82;21075;-74
2022/04/19 06:28:58;;;;;;;6.90;4.28;;;;;;;3.29;79.90;98953.17;1721043;82;21157;-73
2022/04/19 06:31:40;;;;;;;5.87;4.97;;;;;;;3.30;80.25;98953.61;1716897;82;21070;-74
2022/04/19 06:34:11;;;;;;;4.78;4.10;;;;;;;3.37;80.19;98945.73;1712381;83;21114;-74
2022/04/19 06:36:46;;;;;;;4.42;4.03;;;;;;;3.41;80.23;98949.98;1685228;83;21530;-74
2022/04/19 06:39:13;;;;;;;5.58;4.72;;;;;;;3.48;80.21;98939.91;1706655;82;21130;-73
2022/04/19 06:41:42;;;;;;;4.58;4.10;;;;;;;3.54;79.72;98938.52;1676884;83;21146;-74
2022/04/19 06:44:10;;;;;;;5.03;4.55;;;;;;;3.57;79.77;98934.58;1712164;83;21118;-73
2022/04/19 06:46:39;;;;;;;4.50;4.10;;;;;;;3.63;79.70;98930.59;1704667;83;21115;-74
2022/04/19 06:49:06;;;;;;;6.97;4.33;;;;;;;3.68;79.46;98935.27;1693831;82;21675;-74
2022/04/19 06:51:34;;;;;;;4.83;4.42;;;;;;;3.70;78.93;98919.19;1709427;83;21683;-74
2022/04/19 06:54:04;;;;;;;5.08;4.22;;;;;;;3.74;78.78;98919.14;1716323;82;21090;-74
2022/04/19 06:56:35;;;;;;;5.05;4.65;;;;;;;3.77;79.19;98930.36;1699047;82;21063;-74
2022/04/19 06:59:02;;;;;;;4.70;4.30;;;;;;;3.82;79.22;98915.52;1719811;82;21071;-75
2022/04/19 07:01:29;;;;;;;4.97;4.58;;;;;;;3.83;78.55;98912.05;1712704;83;21204;-73
2022/04/19 07:04:08;;;;;;;5.12;4.30;;;;;;;3.87;78.91;98905.05;1626840;85;21078;-74
2022/04/19 07:06:37;;;;;;;3.85;3.65;;;;;;;3.99;78.65;98897.01;1700398;83;21115;-74
2022/04/19 07:09:04;;;;;;;6.45;4.55;;;;;;;4.12;78.53;98895.47;1714765;83;21544;-74
2022/04/19 07:11:34;;;;;;;4.75;4.28;;;;;;;4.19;78.75;98895.80;1712789;83;21007;-74
2022/04/19 07:14:04;;;;;;;4.70;4.28;;;;;;;4.27;77.97;98893.91;1690652;83;22924;-74
2022/04/19 07:16:49;;;;;;;4.08;3.77;;;;;;;4.38;77.69;98889.33;1699773;83;21004;-74
2022/04/19 07:19:17;;;;;;;7.22;3.90;;;;;;;4.50;77.01;98892.59;1676607;83;21119;-74
2022/04/19 07:27:21;;;;;;;4.70;4.15;;;;;;;4.78;76.72;98904.16;1704601;83;21244;-75
2022/04/19 07:29:50;;;;;;;4.35;4.00;;;;;;;4.78;75.33;98913.28;1705129;83;21668;-74
2022/04/19 07:32:17;;;;;;;5.72;4.25;;;;;;;4.76;75.30;98920.28;1707184;83;21457;-73
2022/04/19 07:34:53;;;;;;;4.72;3.75;;;;;;;4.78;75.78;98925.02;1682905;84;21079;-74
2022/04/19 07:37:20;;;;;;;5.33;3.65;;;;;;;4.81;74.67;98922.34;1689669;83;21666;-74
2022/04/19 07:39:47;;;;;;;4.62;3.45;;;;;;;4.78;74.49;98922.41;1687889;83;21124;-74
2022/04/19 07:42:14;;;;;;;5.30;4.72;;;;;;;4.74;74.55;98930.31;1685584;84;21137;-74
2022/04/19 07:44:44;;;;;;;5.15;4.28;;;;;;;4.72;74.49;98916.45;1711073;82;21180;-74
2022/04/19 07:47:09;;;;;;;4.30;3.90;;;;;;;4.71;74.57;98919.52;1704168;82;21066;-74
2022/04/19 07:49:36;;;;;;;5.08;4.00;;;;;;;4.74;75.26;98910.77;1704678;82;21497;-73
2022/04/19 07:52:04;;;;;;;4.95;4.08;;;;;;;4.75;74.64;98911.19;1684536;84;22186;-74
2022/04/19 07:54:31;;;;;;;4.40;3.77;;;;;;;4.73;74.38;98918.19;1682619;84;22044;-74
2022/04/19 07:56:59;;;;;;;5.05;4.55;;;;;;;4.67;74.33;98926.13;1675967;84;21030;-74
2022/04/19 07:59:26;;;;;;;6.05;3.95;;;;;;;4.63;74.23;98937.05;1652949;85;21848;-74
2022/04/19 08:01:53;;;;;;;4.15;3.75;;;;;;;4.61;74.30;98937.53;1718410;82;22305;-75
2022/04/19 08:04:20;;;;;;;4.50;3.67;;;;;;;4.56;74.63;98938.07;1709312;83;22278;-74
2022/04/19 08:06:47;;;;;;;5.30;3.98;;;;;;;4.55;74.52;98929.83;1712627;83;21137;-73
2022/04/19 08:09:15;;;;;;;4.55;4.05;;;;;;;4.52;74.85;98918.16;1710828;83;21125;-73
2022/04/19 08:11:42;;;;;;;4.45;4.05;;;;;;;4.53;75.10;98919.44;1714152;83;21354;-73
2022/04/19 08:14:09;;;;;;;4.95;4.50;;;;;;;4.55;74.60;98925.92;1715991;83;21615;-74
2022/04/19 08:16:37;;;;;;;5.00;4.50;;;;;;;4.54;74.78;98924.19;1711329;83;21058;-74
2022/04/19 08:19:06;;;;;;;5.03;4.58;;;;;;;4.55;75.19;98917.66;1706843;83;21013;-74
2022/04/19 08:21:34;;;;;;;5.65;4.60;;;;;;;4.59;75.26;98915.84;1710605;83;21561;-74
2022/04/19 08:24:04;;;;;;;4.83;4.42;;;;;;;4.62;75.20;98901.45;1691473;83;21138;-74
2022/04/19 08:26:34;;;;;;;5.97;5.22;;;;;;;4.62;74.97;98902.75;1697667;83;21545;-74
2022/04/19 08:29:00;;;;;;;5.78;5.22;;;;;;;4.65;75.19;98896.19;1715035;83;21773;-73
2022/04/19 08:31:27;;;;;;;5.72;5.05;;;;;;;4.72;75.11;98886.49;1711499;83;21067;-73
2022/04/19 08:33:55;;;;;;;5.45;4.87;;;;;;;4.74;74.81;98886.89;1701150;82;21126;-74
2022/04/19 08:36:23;;;;;;;4.67;4.25;;;;;;;4.73;74.75;98896.89;1699557;83;21129;-74
2022/04/19 08:38:50;;;;;;;5.47;4.97;;;;;;;4.74;74.79;98897.31;1700904;83;21063;-74
2022/04/19 08:41:19;;;;;;;5.08;4.67;;;;;;;4.72;74.62;98895.61;1674939;83;21170;-73
2022/04/19 08:43:46;;;;;;;5.12;4.62;;;;;;;4.69;74.68;98895.25;1680718;83;21542;-74
2022/04/19 08:46:14;;;;;;;5.00;4.55;;;;;;;4.69;75.06;98883.52;1712368;83;21561;-73
2022/04/19 08:48:41;;;;;;;4.90;4.50;;;;;;;4.71;75.17;98884.77;1717929;82;21213;-73
2022/04/19 08:51:10;;;;;;;5.05;4.65;;;;;;;4.73;74.86;98882.55;1698528;83;21576;-73
2022/04/19 08:59:08;;;;;;;5.80;4.60;;;;;;;4.74;74.69;98881.67;1692895;83;21131;-74
2022/04/19 09:01:35;;;;;;;5.50;5.00;;;;;;;4.79;75.00;98884.16;1715774;82;21030;-73
2022/04/19 09:04:04;;;;;;;4.70;4.35;;;;;;;4.82;74.57;98884.98;1710327;83;21125;-73
2022/04/19 09:06:56;;;;;;;4.28;3.98;;;;;;;4.86;74.34;98887.49;1705392;82;21148;-73
2022/04/19 09:09:34;;;;;;;4.30;3.90;;;;;;;4.86;74.44;98896.19;1704559;83;21001;-74
2022/04/19 09:12:12;;;;;;;4.33;3.92;;;;;;;4.88;73.95;98896.16;1714936;83;21103;-73
2022/04/19 09:15:00;;;;;;;4.83;4.17;;;;;;;4.86;74.01;98892.70;1692040;83;21001;-74
2022/04/19 09:17:36;;;;;;;6.00;4.53;;;;;;;4.86;74.47;98893.59;1689300;83;21004;-73
2022/04/19 09:20:15;;;;;;;5.62;4.33;;;;;;;4.91;74.39;98889.13;1717274;83;21906;-74
2022/04/19 09:22:44;;;;;;;4.72;4.30;;;;;;;4.96;74.30;98886.40;1704359;81;21148;-74
2022/04/19 09:25:21;;;;;;;5.00;4.50;;;;;;;5.00;74.19;98893.28;1713665;83;21022;-74
2022/04/19 09:27:49;;;;;;;4.35;3.95;;;;;;;5.03;74.33;98884.94;1705543;83;21114;-74
2022/04/19 09:30:29;;;;;;;3.85;3.55;;;;;;;5.06;74.20;98887.94;1711415;83;20938;-72
2022/04/19 09:33:08;;;;;;;4.30;3.92;;;;;;;5.07;74.16;98899.22;1706483;83;21209;-73
2022/04/19 09:35:45;;;;;;;3.85;3.60;;;;;;;5.08;73.88;98899.61;1712180;83;20996;-74
2022/04/19 09:38:12;;;;;;;3.30;3.00;;;;;;;5.11;74.07;98900.42;1696510;83;21122;-74
2022/04/19 09:40:48;;;;;;;3.80;3.50;;;;;;;5.16;73.78;98893.78;1688909;83;21182;-74
2022/04/19 09:43:20;;;;;;;3.95;3.22;;;;;;;5.15;73.59;98895.54;1714712;83;21078;-74
2022/04/19 09:45:59;;;;;;;4.25;3.85;;;;;;;5.15;73.74;98905.97;1713947;83;21970;-74
2022/04/19 09:48:35;;;;;;;4.75;4.25;;;;;;;5.19;73.92;98906.33;1712145;83;20996;-74
2022/04/19 09:51:12;;;;;;;4.53;4.12;;;;;;;5.27;73.36;98909.20;1712233;83;21102;-73
2022/04/19 09:53:47;;;;;;;4.30;3.85;;;;;;;5.27;73.09;98911.81;1717238;82;21558;-73
2022/04/19 09:56:21;;;;;;;;;;;;;;;5.28;73.28;98892.64;1710902;83;21082;-73
2022/04/19 09:58:50;;;;;;;3.52;3.22;;;;;;;5.31;73.61;98903.89;1686107;83;21152;-73
2022/04/19 10:09:38;;;;;;;3.90;3.00;;;;;;;5.61;72.17;98905.80;1715560;82;21078;-73
2022/04/19 10:12:07;;;;;;;4.40;2.83;;;;;;;5.65;71.92;98897.86;1692004;83;21616;-74
2022/04/19 10:14:34;;;;;;;3.08;2.87;;;;;;;5.72;71.90;98895.95;1694184;82;21170;-74
2022/04/19 10:17:03;;;;;;;3.10;2.80;;;;;;;5.80;71.83;98896.63;1708512;82;21035;-73
2022/04/19 10:19:30;;;;;;;3.00;2.72;;;;;;;5.87;71.79;98894.72;1717633;82;21070;-74
2022/04/19 10:22:00;;;;;;;3.05;2.85;;;;;;;5.97;71.62;98894.05;1703552;82;21340;-73
2022/04/19 10:24:27;;;;;;;3.12;2.33;;;;;;;6.03;71.46;98898.66;1704403;83;21138;-74
2022/04/19 10:26:54;;;;;;;2.52;2.37;;;;;;;6.07;70.98;98902.05;1696283;83;21072;-74
2022/04/19 10:29:25;;;;;;;6.92;2.58;;;;;;;6.06;70.28;98901.20;1685041;83;21668;-74
2022/04/19 10:32:03;;;;;;;3.50;2.35;;;;;;;6.05;70.66;98901.23;1638555;84;21217;-73
2022/04/19 10:34:33;;;;;;;2.60;2.40;;;;;;;6.06;70.07;98900.34;1686657;84;21075;-73
2022/04/19 10:37:24;;;;;;;5.42;2.60;;;;;;;6.05;70.25;98914.29;1679171;84;21838;-74
2022/04/19 10:39:54;;;;;;;4.17;3.45;;;;;;;6.07;70.61;98912.48;1666951;83;21195;-74
2022/04/19 10:42:37;;;;;;;2.80;2.60;;;;;;;6.17;70.32;98913.99;1696050;83;22244;-73
2022/04/19 10:45:20;;;;;;;2.85;2.65;;;;;;;6.25;69.97;98917.23;1711858;83;21114;-74
2022/04/19 10:47:58;;;;;;;2.42;2.22;;;;;;;6.31;70.03;98911.85;1710166;83;21198;-74
2022/04/19 10:50:38;;;;;;;2.08;1.90;;;;;;;6.41;69.57;98909.85;1711273;83;21736;-74
2022/04/19 10:53:11;;;;;;;2.58;2.35;;;;;;;6.54;70.27;98905.16;1706422;83;21136;-74
2022/04/19 10:55:40;;;;;;;2.20;2.10;;;;;;;6.70;69.28;98898.56;1704150;83;22401;-74
2022/04/19 10:58:13;;;;;;;2.20;2.10;;;;;;;6.86;68.94;98894.22;1682146;83;21087;-75
2022/04/19 11:00:58;;;;;;;2.72;2.50;;;;;;;6.97;68.83;98901.27;1697055;83;21039;-74
2022/04/19 11:03:46;;;;;;;2.52;2.40;;;;;;;7.12;68.82;98898.66;1704832;83;21722;-74
2022/04/19 11:06:31;;;;;;;2.20;2.10;;;;;;;7.22;67.26;98893.54;1697530;83;21573;-74
2022/04/19 11:09:22;;;;;;;4.87;2.40;;;;;;;7.21;66.91;98896.20;1707148;82;21023;-74
2022/04/19 11:11:59;;;;;;;2.30;2.20;;;;;;;7.19;66.66;98900.62;1699962;83;21652;-74
2022/04/19 11:14:37;;;;;;;2.12;1.92;;;;;;;7.16;66.29;98894.18;1713541;83;21050;-74
2022/04/19 11:17:26;;;;;;;2.98;2.67;;;;;;;7.16;65.90;98905.95;1714956;83;21093;-74
2022/04/19 11:20:14;;;;;;;3.02;2.15;;;;;;;7.16;66.06;98904.64;1703374;82;21110;-74
2022/04/19 11:22:51;;;;;;;3.37;2.40;;;;;;;7.14;66.59;98907.77;1705410;82;21058;-73
2022/04/19 11:25:39;;;;;;;3.10;2.80;;;;;;;7.15;66.58;98904.26;1700423;83;21095;-73
2022/04/19 11:28:18;;;;;;;2.55;2.35;;;;;;;7.10;66.18;98892.62;1711447;83;21454;-73
2022/04/19 11:31:00;;;;;;;2.40;2.20;;;;;;;7.10;66.88;98893.92;1714467;82;21176;-73
2022/04/19 11:33:33;;;;;;;2.35;2.25;;;;;;;7.10;66.27;98888.70;1701668;83;21070;-74
2022/04/19 11:36:07;;;;;;;4.47;2.30;;;;;;;7.06;66.65;98880.52;1683242;83;22222;-74
2022/04/19 11:38:40;;;;;;;2.37;2.10;;;;;;;7.04;66.91;98875.36;1715896;82;21043;-73
2022/04/19 11:46:47;;;;;;;2.47;2.27;;;;;;;7.21;66.20;98854.34;1601411;88;21130;-74
2022/04/19 11:49:27;;;;;;;2.35;2.22;;;;;;;7.25;65.70;98865.13;1611910;88;21142;-73
2022/04/19 11:51:58;;;;;;;3.30;2.30;;;;;;;7.31;66.30;98866.22;1669120;82;21545;-74
2022/04/19 11:54:31;;;;;;;2.27;2.10;;;;;;;7.37;65.54;98873.89;1696024;83;21207;-74
2022/04/19 11:57:00;;;;;;;2.30;2.10;;;;;;;7.35;65.19;98869.62;1693473;83;21131;-74
2022/04/19 11:59:37;;;;;;;2.40;2.20;;;;;;;7.32;65.73;98870.56;1703103;83;21173;-74
2022/04/19 12:02:14;;;;;;;2.17;2.00;;;;;;;7.33;65.73;98873.59;1694169;83;21121;-73
2022/04/19 12:04:55;;;;;;;2.00;1.90;;;;;;;7.34;65.89;98870.52;1712518;83;21075;-74
2022/04/19 12:07:23;;;;;;;2.47;2.27;;;;;;;7.36;65.32;98864.34;1714144;83;21133;-74
2022/04/19 12:09:52;;;;;;;1.98;1.87;;;;;;;7.33;65.73;98863.56;1714762;83;21045;-74
2022/04/19 12:12:19;;;;;;;2.58;2.33;;;;;;;7.29;65.55;98859.34;1710530;83;21094;-73
2022/04/19 12:14:53;;;;;;;2.10;2.00;;;;;;;7.25;65.59;98858.59;1710447;83;21110;-73
2022/04/19 12:17:21;;;;;;;2.12;2.02;;;;;;;7.24;65.68;98862.09;1695941;83;21134;-74
2022/04/19 12:19:47;;;;;;;2.20;2.02;;;;;;;7.30;66.11;98861.06;1706991;83;21146;-73
2022/04/19 12:22:21;;;;;;;1.90;1.80;;;;;;;7.36;65.59;98863.47;1711309;83;21112;-73
2022/04/19 12:24:54;;;;;;;1.92;1.82;;;;;;;7.46;65.88;98864.03;1690226;83;21175;-75
2022/04/19 12:27:26;;;;;;;1.80;1.70;;;;;;;7.59;65.65;98857.49;1690901;83;21562;-73
2022/04/19 12:30:11;;;;;;;1.92;1.82;;;;;;;7.76;65.50;98851.69;1689521;83;21138;-73
2022/04/19 12:32:59;;;;;;;2.40;2.20;;;;;;;7.91;65.74;98847.70;1695957;83;21142;-74
2022/04/19 12:35:37;;;;;;;3.47;2.17;;;;;;;8.05;64.48;98850.67;1693977;83;21757;-74
2022/04/19 12:38:18;;;;;;;2.15;1.95;;;;;;;8.10;64.50;98848.78;1688855;83;21096;-73